createdAt,value
2018-04-27T00:02:12.431Z,5.70
2018-04-27T00:04:40.894Z,5.70
2018-04-27T00:07:10.087Z,5.70
2018-04-27T00:09:38.601Z,5.70
2018-04-27T00:12:09.210Z,5.70
2018-04-27T00:14:37.613Z,5.70
2018-04-27T00:17:06.023Z,5.70
2018-04-27T00:19:34.645Z,5.70
2018-04-27T00:22:04.924Z,5.60
2018-04-27T00:24:35.769Z,5.60
2018-04-27T00:27:03.921Z,5.50
2018-04-27T00:29:32.370Z,5.50
2018-04-27T00:32:00.826Z,5.50
2018-04-27T00:34:35.568Z,5.50
2018-04-27T00:37:04.129Z,5.50
2018-04-27T00:39:32.638Z,5.50
2018-04-27T00:42:01.138Z,5.50
2018-04-27T00:44:29.542Z,5.40
2018-04-27T00:46:58.030Z,5.40
2018-04-27T00:49:26.653Z,5.40
2018-04-27T00:51:55.113Z,5.40
2018-04-27T00:54:23.525Z,5.40
2018-04-27T00:56:53.780Z,5.40
2018-04-27T00:59:22.373Z,5.40
2018-04-27T01:01:50.834Z,5.30
2018-04-27T01:04:22.651Z,5.30
2018-04-27T01:06:51.154Z,5.20
2018-04-27T01:09:22.038Z,5.30
2018-04-27T01:11:50.536Z,5.20
2018-04-27T01:14:18.998Z,5.30
2018-04-27T01:16:47.466Z,5.30
2018-04-27T01:19:18.002Z,5.20
2018-04-27T01:21:49.722Z,5.30
2018-04-27T01:24:18.348Z,5.20
2018-04-27T01:26:50.561Z,5.20
2018-04-27T01:29:19.830Z,5.20
2018-04-27T01:31:48.311Z,5.10
2018-04-27T01:34:17.702Z,5.10
2018-04-27T01:36:47.150Z,5.10
2018-04-27T01:39:15.637Z,5.10
2018-04-27T01:41:47.040Z,5.10
2018-04-27T01:44:16.366Z,5.00
2018-04-27T01:46:44.782Z,5.00
2018-04-27T01:51:48.898Z,5.10
2018-04-27T01:54:19.201Z,5.00
2018-04-27T01:56:49.492Z,5.00
2018-04-27T01:59:18.186Z,4.90
2018-04-27T02:01:46.679Z,5.00
2018-04-27T02:04:15.157Z,5.00
2018-04-27T02:06:43.618Z,5.00
2018-04-27T02:09:12.490Z,5.00
2018-04-27T02:11:40.985Z,5.00
2018-04-27T02:14:11.356Z,4.90
2018-04-27T02:16:40.996Z,4.90
2018-04-27T02:19:09.484Z,4.90
2018-04-27T02:21:37.945Z,4.90
2018-04-27T02:24:07.197Z,4.90
2018-04-27T02:26:35.665Z,4.90
2018-04-27T02:29:04.908Z,4.90
2018-04-27T02:31:33.365Z,4.90
2018-04-27T02:34:06.030Z,4.90
2018-04-27T02:36:34.649Z,5.00
2018-04-27T02:39:03.522Z,5.00
2018-04-27T02:41:31.952Z,5.00
2018-04-27T02:44:00.432Z,5.00
2018-04-27T02:46:29.693Z,5.00
2018-04-27T02:49:02.694Z,4.90
2018-04-27T02:51:31.218Z,4.90
2018-04-27T02:53:59.651Z,4.90
2018-04-27T02:56:31.118Z,4.90
2018-04-27T02:59:02.430Z,4.80
2018-04-27T03:01:33.262Z,4.80
2018-04-27T03:06:37.525Z,4.80
2018-04-27T03:09:05.361Z,4.90
2018-04-27T03:11:34.545Z,5.00
2018-04-27T03:14:02.974Z,5.00
2018-04-27T03:16:38.965Z,5.00
2018-04-27T03:19:08.618Z,5.10
2018-04-27T03:21:37.043Z,5.10
2018-04-27T03:24:06.306Z,5.00
2018-04-27T03:26:34.741Z,5.00
2018-04-27T03:29:04.003Z,4.90
2018-04-27T03:31:32.590Z,4.90
2018-04-27T03:34:00.985Z,5.00
2018-04-27T03:36:29.450Z,5.00
2018-04-27T03:39:04.667Z,5.00
2018-04-27T03:41:33.285Z,5.10
2018-04-27T03:44:02.478Z,5.10
2018-04-27T03:46:32.306Z,5.10
2018-04-27T03:49:00.550Z,5.00
2018-04-27T03:51:35.344Z,5.00
2018-04-27T03:54:03.873Z,4.90
2018-04-27T03:56:36.136Z,4.90
2018-04-27T03:59:04.742Z,4.90
2018-04-27T04:01:44.965Z,4.90
2018-04-27T04:04:24.517Z,4.90
2018-04-27T04:06:52.960Z,4.80
2018-04-27T04:09:22.186Z,4.70
2018-04-27T04:11:51.488Z,4.70
2018-04-27T04:14:25.767Z,4.60
2018-04-27T04:16:54.253Z,4.60
2018-04-27T04:19:26.358Z,4.50
2018-04-27T04:21:54.989Z,4.50
2018-04-27T04:24:25.573Z,4.40
2018-04-27T04:26:54.816Z,4.50
2018-04-27T04:29:24.937Z,4.40
2018-04-27T04:31:55.620Z,4.50
2018-04-27T04:34:29.171Z,4.50
2018-04-27T04:36:57.757Z,4.50
2018-04-27T04:39:26.218Z,4.50
2018-04-27T04:41:55.240Z,4.60
2018-04-27T04:44:23.533Z,4.60
2018-04-27T04:46:52.027Z,4.70
2018-04-27T04:49:19.934Z,4.80
2018-04-27T04:51:48.443Z,5.00
2018-04-27T04:54:17.062Z,5.20
2018-04-27T04:56:45.566Z,5.30
2018-04-27T04:59:13.971Z,5.60
2018-04-27T05:01:43.247Z,6.10
2018-04-27T05:04:12.273Z,6.30
2018-04-27T05:06:40.740Z,6.30
2018-04-27T05:09:09.189Z,6.60
2018-04-27T05:11:37.407Z,6.90
2018-04-27T05:14:05.861Z,7.20
2018-04-27T05:16:35.075Z,7.70
2018-04-27T05:19:04.711Z,7.70
2018-04-27T05:21:33.201Z,7.90
2018-04-27T05:24:01.711Z,8.00
2018-04-27T05:26:30.329Z,8.10
2018-04-27T05:28:58.543Z,8.20
2018-04-27T05:31:26.322Z,8.20
2018-04-27T05:33:54.441Z,8.30
2018-04-27T05:36:22.982Z,8.40
2018-04-27T05:38:51.460Z,8.40
2018-04-27T05:41:19.255Z,8.50
2018-04-27T05:43:47.057Z,8.50
2018-04-27T05:46:15.435Z,8.70
2018-04-27T05:48:43.899Z,8.70
2018-04-27T05:51:11.881Z,8.80
2018-04-27T05:53:40.033Z,8.80
2018-04-27T05:56:08.943Z,9.10
2018-04-27T05:58:36.766Z,9.00
2018-04-27T06:01:05.206Z,9.20
2018-04-27T06:03:46.336Z,9.40
2018-04-27T06:06:14.498Z,9.40
2018-04-27T06:08:42.977Z,9.60
2018-04-27T06:11:11.516Z,10.00
2018-04-27T06:13:40.203Z,10.30
2018-04-27T06:16:08.705Z,10.50
2018-04-27T06:18:37.394Z,10.60
2018-04-27T06:21:06.837Z,10.70
2018-04-27T06:23:36.063Z,10.80
2018-04-27T06:26:04.670Z,10.90
2018-04-27T06:28:34.131Z,11.00
2018-04-27T06:31:02.276Z,11.10
2018-04-27T06:33:30.806Z,11.20
2018-04-27T06:35:59.465Z,11.40
2018-04-27T06:38:27.690Z,11.60
2018-04-27T06:40:58.809Z,11.70
2018-04-27T06:43:26.937Z,11.70
2018-04-27T06:45:54.742Z,11.90
2018-04-27T06:48:22.545Z,11.90
2018-04-27T06:50:50.806Z,12.20
2018-04-27T06:53:20.427Z,12.40
2018-04-27T06:55:49.391Z,12.50
2018-04-27T06:58:17.193Z,12.50
2018-04-27T07:00:44.993Z,12.60
2018-04-27T07:03:13.173Z,13.10
2018-04-27T07:05:41.313Z,13.50
2018-04-27T07:08:09.823Z,14.30
2018-04-27T07:10:40.579Z,14.30
2018-04-27T07:13:08.354Z,14.50
2018-04-27T07:15:36.146Z,14.70
2018-04-27T07:18:04.579Z,14.80
2018-04-27T07:20:33.250Z,15.00
2018-04-27T07:23:03.123Z,15.10
2018-04-27T07:25:32.529Z,14.90
2018-04-27T07:28:01.888Z,14.50
2018-04-27T07:30:30.337Z,14.50
2018-04-27T07:32:59.593Z,14.90
2018-04-27T07:35:27.356Z,14.80
2018-04-27T07:37:55.160Z,15.10
2018-04-27T07:40:23.135Z,15.20
2018-04-27T07:42:50.942Z,15.60
2018-04-27T07:45:19.067Z,15.50
2018-04-27T07:47:47.833Z,15.40
2018-04-27T07:50:15.841Z,15.50
2018-04-27T07:52:46.769Z,15.50
2018-04-27T07:55:14.661Z,15.70
2018-04-27T07:57:42.582Z,15.80
2018-04-27T08:00:10.901Z,15.50
2018-04-27T08:02:40.374Z,15.20
2018-04-27T08:05:08.860Z,15.20
2018-04-27T08:07:36.689Z,15.20
2018-04-27T08:10:04.346Z,15.40
2018-04-27T08:12:32.166Z,15.30
2018-04-27T08:14:59.957Z,15.30
2018-04-27T08:17:28.774Z,15.50
2018-04-27T08:19:56.817Z,15.50
2018-04-27T08:22:24.638Z,15.50
2018-04-27T08:24:53.416Z,15.80
2018-04-27T08:27:21.975Z,16.20
2018-04-27T08:29:50.607Z,16.20
2018-04-27T08:32:19.181Z,16.10
2018-04-27T08:34:47.000Z,16.10
2018-04-27T08:37:15.459Z,16.30
2018-04-27T08:39:44.735Z,16.80
2018-04-27T08:42:13.316Z,16.80
2018-04-27T08:44:43.512Z,16.90
2018-04-27T08:47:12.023Z,16.80
2018-04-27T08:49:42.089Z,16.30
2018-04-27T08:52:09.938Z,16.30
2018-04-27T08:54:38.014Z,16.40
2018-04-27T08:57:06.294Z,17.00
2018-04-27T08:59:45.923Z,17.00
2018-04-27T09:02:14.451Z,17.00
2018-04-27T09:04:42.605Z,17.20
2018-04-27T09:07:23.284Z,16.90
2018-04-27T09:09:54.981Z,16.80
2018-04-27T09:12:23.650Z,17.10
2018-04-27T09:14:51.799Z,17.50
2018-04-27T09:17:21.154Z,17.60
2018-04-27T09:19:49.742Z,17.50
2018-04-27T09:22:18.634Z,16.60
2018-04-27T09:24:48.311Z,16.70
2018-04-27T09:27:17.651Z,16.90
2018-04-27T09:29:46.519Z,16.90
2018-04-27T09:32:15.775Z,17.20
2018-04-27T09:34:43.924Z,17.20
2018-04-27T09:37:12.420Z,17.30
2018-04-27T09:39:41.214Z,17.90
2018-04-27T09:42:09.021Z,17.60
2018-04-27T09:44:40.264Z,17.90
2018-04-27T09:47:09.595Z,17.70
2018-04-27T09:49:38.636Z,19.00
2018-04-27T09:52:06.479Z,19.00
2018-04-27T09:54:35.088Z,18.40
2018-04-27T09:57:04.030Z,18.90
2018-04-27T09:59:33.179Z,18.30
2018-04-27T10:02:01.345Z,18.30
2018-04-27T10:04:30.262Z,17.80
2018-04-27T10:06:58.079Z,17.80
2018-04-27T10:09:26.526Z,17.80
2018-04-27T10:11:55.015Z,18.00
2018-04-27T10:14:24.275Z,18.20
2018-04-27T10:16:52.742Z,18.20
2018-04-27T10:19:20.675Z,18.40
2018-04-27T10:21:49.577Z,18.10
2018-04-27T10:24:17.983Z,17.80
2018-04-27T10:26:45.925Z,17.80
2018-04-27T10:29:14.404Z,17.70
2018-04-27T10:31:42.820Z,18.60
2018-04-27T10:34:11.298Z,18.70
2018-04-27T10:36:39.830Z,19.40
2018-04-27T10:39:20.134Z,19.10
2018-04-27T10:41:48.607Z,19.10
2018-04-27T10:44:16.765Z,19.00
2018-04-27T10:46:44.585Z,18.90
2018-04-27T10:49:12.378Z,18.70
2018-04-27T10:51:44.120Z,19.00
2018-04-27T10:54:13.176Z,18.80
2018-04-27T10:56:44.828Z,18.30
2018-04-27T10:59:12.684Z,18.40
2018-04-27T11:01:41.630Z,18.40
2018-04-27T11:04:09.451Z,18.30
2018-04-27T11:06:37.074Z,18.20
2018-04-27T11:09:04.917Z,18.30
2018-04-27T11:11:32.761Z,18.90
2018-04-27T11:14:05.036Z,19.40
2018-04-27T11:16:55.441Z,19.60
2018-04-27T11:19:23.453Z,19.60
2018-04-27T11:27:19.407Z,19.10
2018-04-27T11:29:47.963Z,18.40
2018-04-27T11:32:16.385Z,18.50
2018-04-27T11:34:45.776Z,18.60
2018-04-27T11:37:15.169Z,19.70
2018-04-27T11:42:24.964Z,19.90
2018-04-27T11:44:53.466Z,20.60
2018-04-27T11:53:09.748Z,20.60
2018-04-27T11:55:40.849Z,20.60
2018-04-27T11:58:08.613Z,20.80
2018-04-27T12:00:36.296Z,21.00
2018-04-27T12:03:04.086Z,20.90
2018-04-27T12:05:31.954Z,21.20
2018-04-27T12:07:59.788Z,20.90
2018-04-27T12:10:27.610Z,20.70
2018-04-27T12:13:02.057Z,19.60
2018-04-27T12:15:34.403Z,20.00
2018-04-27T12:18:02.298Z,20.80
2018-04-27T12:20:30.883Z,20.80
2018-04-27T12:23:00.090Z,21.10
2018-04-27T12:25:30.759Z,21.10
2018-04-27T12:28:05.028Z,20.90
2018-04-27T12:30:33.701Z,20.90
2018-04-27T12:33:02.194Z,21.60
2018-04-27T12:35:45.003Z,21.20
2018-04-27T12:38:12.766Z,20.90
2018-04-27T12:40:41.731Z,20.10
2018-04-27T12:43:09.626Z,20.10
2018-04-27T12:45:37.762Z,20.60
2018-04-27T12:48:06.015Z,21.40
2018-04-27T12:50:33.810Z,21.70
2018-04-27T12:53:01.863Z,21.00
2018-04-27T12:55:33.994Z,20.70
2018-04-27T12:58:05.035Z,20.70
2018-04-27T13:00:35.372Z,21.80
2018-04-27T13:03:05.488Z,21.70
2018-04-27T13:08:22.231Z,21.80
2018-04-27T13:10:51.562Z,21.50
2018-04-27T13:13:19.350Z,21.90
2018-04-27T13:15:47.145Z,22.50
2018-04-27T13:18:17.722Z,22.40
2018-04-27T13:20:45.852Z,21.60
2018-04-27T13:23:14.320Z,21.50
2018-04-27T13:25:42.822Z,20.80
2018-04-27T13:28:31.130Z,21.40
2018-04-27T13:31:13.883Z,21.30
2018-04-27T13:33:42.396Z,21.10
2018-04-27T13:36:10.899Z,21.10
2018-04-27T13:38:39.465Z,21.10
2018-04-27T13:41:08.234Z,21.00
2018-04-27T13:43:36.670Z,21.40
2018-04-27T13:46:04.820Z,21.20
2018-04-27T13:48:33.753Z,20.90
2018-04-27T13:51:01.315Z,20.80
2018-04-27T13:53:40.513Z,20.70
2018-04-27T13:56:09.901Z,19.80
2018-04-27T13:58:41.990Z,19.80
2018-04-27T14:01:09.982Z,19.80
2018-04-27T14:03:37.815Z,20.00
2018-04-27T14:06:05.900Z,19.60
2018-04-27T14:08:35.682Z,19.20
2018-04-27T14:14:05.893Z,19.30
2018-04-27T14:16:34.009Z,19.40
2018-04-27T14:19:01.802Z,19.50
2018-04-27T14:21:29.661Z,19.50
2018-04-27T14:23:58.756Z,19.50
2018-04-27T14:26:33.940Z,19.40
2018-04-27T14:29:02.998Z,19.50
2018-04-27T14:31:36.728Z,19.70
2018-04-27T14:34:06.289Z,19.60
2018-04-27T14:36:35.483Z,19.30
2018-04-27T14:39:03.440Z,19.30
2018-04-27T14:41:31.892Z,19.20
2018-04-27T14:44:00.402Z,19.20
2018-04-27T14:46:28.464Z,19.40
2018-04-27T14:48:57.015Z,19.30
2018-04-27T14:51:24.488Z,19.60
2018-04-27T14:53:52.906Z,19.70
2018-04-27T14:56:26.522Z,20.10
2018-04-27T14:58:55.302Z,20.10
2018-04-27T15:01:23.088Z,20.10
2018-04-27T15:03:51.492Z,19.90
2018-04-27T15:06:20.673Z,19.40
2018-04-27T15:08:49.111Z,19.40
2018-04-27T15:11:17.656Z,19.50
2018-04-27T15:13:45.801Z,19.50
2018-04-27T15:16:14.334Z,19.80
2018-04-27T15:18:50.310Z,19.70
2018-04-27T15:21:18.736Z,19.60
2018-04-27T15:23:48.020Z,19.30
2018-04-27T15:26:15.832Z,19.30
2018-04-27T15:28:44.337Z,18.80
2018-04-27T15:31:12.458Z,18.70
2018-04-27T15:33:40.971Z,18.70
2018-04-27T15:36:08.916Z,18.70
2018-04-27T15:38:36.768Z,18.90
2018-04-27T15:41:04.510Z,18.80
2018-04-27T15:43:32.592Z,18.70
2018-04-27T15:46:01.169Z,18.90
2018-04-27T15:48:41.653Z,18.90
2018-04-27T15:51:10.221Z,19.10
2018-04-27T15:53:38.054Z,19.10
2018-04-27T15:56:05.832Z,19.10
2018-04-27T15:58:35.011Z,19.00
2018-04-27T16:01:02.756Z,18.90
2018-04-27T16:03:30.528Z,19.00
2018-04-27T16:05:58.298Z,18.80
2018-04-27T16:08:26.118Z,18.70
2018-04-27T16:10:55.866Z,18.80
2018-04-27T16:13:30.285Z,18.80
2018-04-27T16:15:58.017Z,18.70
2018-04-27T16:18:25.811Z,18.70
2018-04-27T16:20:54.796Z,18.60
2018-04-27T16:23:22.896Z,18.60
2018-04-27T16:25:50.650Z,18.60
2018-04-27T16:28:20.898Z,18.50
2018-04-27T16:30:48.652Z,18.50
2018-04-27T16:33:17.203Z,18.50
2018-04-27T16:35:44.997Z,18.50
2018-04-27T16:38:12.938Z,18.50
2018-04-27T16:40:40.744Z,18.50
2018-04-27T16:43:08.869Z,18.40
2018-04-27T16:45:38.046Z,18.30
2018-04-27T16:48:06.820Z,18.30
2018-04-27T16:50:34.623Z,18.30
2018-04-27T16:53:03.080Z,18.20
2018-04-27T16:55:30.961Z,18.10
2018-04-27T16:57:58.845Z,18.10
2018-04-27T17:00:26.568Z,18.10
2018-04-27T17:02:54.365Z,18.20
2018-04-27T17:05:22.863Z,18.40
2018-04-27T17:07:51.645Z,18.40
2018-04-27T17:10:19.790Z,18.40
2018-04-27T17:12:47.554Z,18.30
2018-04-27T17:15:15.385Z,18.30
2018-04-27T17:17:43.200Z,18.20
2018-04-27T17:20:10.961Z,18.10
2018-04-27T17:22:38.845Z,18.10
2018-04-27T17:25:06.785Z,18.10
2018-04-27T17:27:34.557Z,18.10
2018-04-27T17:30:02.317Z,18.10
2018-04-27T17:32:30.122Z,18.00
2018-04-27T17:34:57.849Z,18.00
2018-04-27T17:37:25.654Z,17.90
2018-04-27T17:39:53.493Z,17.70
2018-04-27T17:42:21.610Z,17.70
2018-04-27T17:44:49.419Z,17.60
2018-04-27T17:47:17.222Z,17.50
2018-04-27T17:49:45.009Z,17.40
2018-04-27T17:52:13.439Z,17.40
2018-04-27T17:54:41.950Z,17.30
2018-04-27T17:57:10.453Z,17.20
2018-04-27T17:59:38.969Z,17.10
2018-04-27T18:02:07.160Z,17.10
2018-04-27T18:04:35.044Z,17.00
2018-04-27T18:07:04.764Z,16.80
2018-04-27T18:09:32.863Z,16.80
2018-04-27T18:12:01.392Z,16.80
2018-04-27T18:14:29.146Z,16.70
2018-04-27T18:16:56.982Z,16.60
2018-04-27T18:19:24.745Z,16.60
2018-04-27T18:21:52.490Z,16.50
2018-04-27T18:24:20.360Z,16.50
2018-04-27T18:26:48.176Z,16.40
2018-04-27T18:29:15.985Z,16.50
2018-04-27T18:31:45.154Z,16.40
2018-04-27T18:34:13.591Z,16.40
2018-04-27T18:36:43.403Z,16.30
2018-04-27T18:39:11.892Z,16.30
2018-04-27T18:41:40.688Z,16.30
2018-04-27T18:44:08.519Z,16.40
2018-04-27T18:46:36.382Z,16.40
2018-04-27T18:49:04.172Z,16.40
2018-04-27T18:51:32.004Z,16.40
2018-04-27T18:54:01.847Z,16.40
2018-04-27T18:56:29.612Z,16.40
2018-04-27T18:58:57.367Z,16.30
2018-04-27T19:01:25.158Z,16.30
2018-04-27T19:03:55.731Z,16.20
2018-04-27T19:06:24.281Z,15.90
2018-04-27T19:08:52.125Z,15.90
2018-04-27T19:11:20.155Z,15.90
2018-04-27T19:13:48.769Z,15.80
2018-04-27T19:16:16.621Z,15.80
2018-04-27T19:18:44.359Z,15.70
2018-04-27T19:21:19.464Z,15.50
2018-04-27T19:23:47.266Z,15.40
2018-04-27T19:26:21.902Z,15.30
2018-04-27T19:28:49.719Z,15.20
2018-04-27T19:31:17.569Z,15.00
2018-04-27T19:33:45.321Z,14.90
2018-04-27T19:36:13.077Z,14.80
2018-04-27T19:38:44.189Z,14.70
2018-04-27T19:41:12.118Z,14.60
2018-04-27T19:43:39.902Z,14.50
2018-04-27T19:46:07.792Z,14.40
2018-04-27T19:48:35.864Z,14.30
2018-04-27T19:51:04.169Z,14.30
2018-04-27T19:53:32.807Z,14.10
2018-04-27T19:56:00.540Z,14.10
2018-04-27T19:58:28.467Z,14.10
2018-04-27T20:00:56.259Z,14.10
2018-04-27T20:03:24.097Z,14.10
2018-04-27T20:05:53.624Z,14.20
2018-04-27T20:08:23.164Z,14.20
2018-04-27T20:10:51.370Z,14.20
2018-04-27T20:13:19.810Z,14.20
2018-04-27T20:15:48.550Z,14.20
2018-04-27T20:18:16.396Z,14.20
2018-04-27T20:20:44.151Z,14.30
2018-04-27T20:23:12.798Z,14.30
2018-04-27T20:25:40.640Z,14.30
2018-04-27T20:28:08.453Z,14.30
2018-04-27T20:30:36.051Z,14.30
2018-04-27T20:33:03.909Z,14.40
2018-04-27T20:35:31.693Z,14.40
2018-04-27T20:38:02.494Z,14.40
2018-04-27T20:40:31.009Z,14.40
2018-04-27T20:43:06.436Z,14.30
2018-04-27T20:45:34.905Z,14.30
2018-04-27T20:48:02.811Z,14.30
2018-04-27T20:50:30.648Z,14.30
2018-04-27T20:52:59.358Z,14.30
2018-04-27T20:55:28.021Z,14.20
2018-04-27T20:57:55.823Z,14.10
2018-04-27T21:00:24.354Z,14.00
2018-04-27T21:02:52.266Z,14.00
2018-04-27T21:05:20.258Z,13.90
2018-04-27T21:07:48.031Z,13.80
2018-04-27T21:10:17.653Z,13.70
2018-04-27T21:12:45.414Z,13.70
2018-04-27T21:15:14.979Z,13.70
2018-04-27T21:17:43.660Z,13.50
2018-04-27T21:20:11.278Z,13.50
2018-04-27T21:22:40.707Z,13.50
2018-04-27T21:25:09.245Z,13.40
2018-04-27T21:27:41.918Z,13.40
2018-04-27T21:30:09.771Z,13.30
2018-04-27T21:32:37.739Z,13.30
2018-04-27T21:35:05.537Z,13.40
2018-04-27T21:37:33.326Z,13.40
2018-04-27T21:40:01.146Z,13.50
2018-04-27T21:42:29.728Z,13.50
2018-04-27T21:44:57.617Z,13.50
2018-04-27T21:47:31.271Z,13.50
2018-04-27T21:50:01.013Z,13.50
2018-04-27T21:55:35.153Z,13.70
2018-04-27T21:58:05.846Z,13.60
2018-04-27T22:00:33.667Z,13.60
2018-04-27T22:03:03.389Z,13.60
2018-04-27T22:05:33.626Z,13.50
2018-04-27T22:08:06.246Z,13.40
2018-04-27T22:10:34.719Z,13.40
2018-04-27T22:13:03.251Z,13.40
2018-04-27T22:15:31.993Z,13.40
2018-04-27T22:17:59.871Z,13.40
2018-04-27T22:20:32.429Z,13.30
2018-04-27T22:23:00.181Z,13.30
2018-04-27T22:25:29.766Z,13.20
2018-04-27T22:27:58.235Z,13.20
2018-04-27T22:30:29.598Z,13.20
2018-04-27T22:32:57.389Z,13.20
2018-04-27T22:35:35.915Z,13.20
2018-04-27T22:38:03.775Z,13.10
2018-04-27T22:40:35.249Z,13.10
2018-04-27T22:43:02.987Z,13.10
2018-04-27T22:45:33.084Z,13.10
2018-04-27T22:51:29.370Z,13.00
2018-04-27T22:54:00.863Z,13.00
2018-04-27T22:59:36.322Z,13.10
2018-04-27T23:02:11.974Z,13.20
2018-04-27T23:04:39.809Z,13.20
2018-04-27T23:07:07.780Z,13.20
2018-04-27T23:09:35.541Z,13.30
2018-04-27T23:12:04.246Z,13.40
2018-04-27T23:14:37.451Z,13.50
2018-04-27T23:17:07.060Z,13.50
2018-04-27T23:19:34.829Z,13.60
2018-04-27T23:22:23.141Z,13.60
2018-04-27T23:24:53.542Z,13.70
2018-04-27T23:27:21.333Z,13.70
2018-04-27T23:29:49.398Z,13.70
2018-04-27T23:32:17.169Z,13.80
2018-04-27T23:34:46.266Z,13.80
2018-04-27T23:37:14.251Z,13.80
2018-04-27T23:39:42.881Z,13.90
2018-04-27T23:42:10.619Z,13.90
2018-04-27T23:44:38.401Z,13.80
2018-04-27T23:47:06.431Z,13.70
2018-04-27T23:49:34.985Z,13.70
2018-04-27T23:52:03.525Z,13.70
2018-04-27T23:54:32.150Z,13.50
2018-04-27T23:57:02.930Z,13.50
